createdAt,value
2023-05-01T00:01:57.645Z,99974.97
2023-05-01T00:04:26.342Z,99975.48
2023-05-01T00:06:55.250Z,99975.86
2023-05-01T00:09:24.086Z,99988.13
2023-05-01T00:11:52.554Z,99989.16
2023-05-01T00:14:21.385Z,99994.98
2023-05-01T00:16:50.182Z,99994.18
2023-05-01T00:19:20.310Z,100003.02
2023-05-01T00:21:50.876Z,100000.11
2023-05-01T00:24:19.425Z,100010.63
2023-05-01T00:26:47.999Z,100011.70
2023-05-01T00:29:17.034Z,100008.69
2023-05-01T00:31:47.319Z,100010.39
2023-05-01T00:34:16.301Z,100003.20
2023-05-01T00:36:45.938Z,100000.81
2023-05-01T00:39:16.180Z,100007.63
2023-05-01T00:41:44.978Z,100012.41
2023-05-01T00:44:13.794Z,100014.47
2023-05-01T00:46:43.995Z,100015.13
2023-05-01T00:49:13.358Z,100022.94
2023-05-01T00:51:41.904Z,100028.53
2023-05-01T00:54:10.598Z,100024.45
2023-05-01T00:56:39.372Z,100025.29
2023-05-01T00:59:08.327Z,100027.13
2023-05-01T01:01:38.343Z,100034.59
2023-05-01T01:04:08.082Z,100036.11
2023-05-01T01:06:58.835Z,100034.38
2023-05-01T01:10:20.579Z,100038.05
2023-05-01T01:13:16.125Z,100040.73
2023-05-01T01:15:57.808Z,100038.83
2023-05-01T01:18:59.148Z,100041.41
2023-05-01T01:21:34.385Z,100041.44
2023-05-01T01:24:11.584Z,100048.48
2023-05-01T01:26:46.843Z,100048.42
2023-05-01T01:29:36.328Z,100059.81
2023-05-01T01:32:45.267Z,100054.48
2023-05-01T01:35:20.931Z,100050.53
2023-05-01T01:37:56.995Z,100041.80
2023-05-01T01:40:29.855Z,100042.77
2023-05-01T01:43:07.802Z,100036.60
2023-05-01T01:45:43.174Z,100041.35
2023-05-01T01:48:17.497Z,100045.77
2023-05-01T01:50:46.244Z,100051.75
2023-05-01T01:53:18.321Z,100054.48
2023-05-01T01:55:47.133Z,100055.66
2023-05-01T01:58:16.629Z,100059.23
2023-05-01T02:00:45.977Z,100069.80
2023-05-01T02:03:14.845Z,100069.99
2023-05-01T02:05:45.089Z,100071.88
2023-05-01T02:08:13.711Z,100074.25
2023-05-01T02:10:42.982Z,100077.50
2023-05-01T02:13:11.965Z,100077.50
2023-05-01T02:15:41.079Z,100094.72
2023-05-01T02:18:09.823Z,100091.45
2023-05-01T02:20:38.591Z,100087.48
2023-05-01T02:23:07.524Z,100092.56
2023-05-01T02:25:36.613Z,100090.30
2023-05-01T02:28:10.193Z,100097.58
2023-05-01T02:30:39.244Z,100091.93
2023-05-01T02:33:10.874Z,100087.97
2023-05-01T02:35:44.157Z,100097.66
2023-05-01T02:38:13.193Z,100086.54
2023-05-01T02:40:45.832Z,100088.89
2023-05-01T02:43:16.989Z,100102.67
2023-05-01T02:45:47.286Z,100111.72
2023-05-01T02:48:20.649Z,100112.23
2023-05-01T02:50:49.432Z,100111.58
2023-05-01T02:53:18.524Z,100118.80
2023-05-01T02:55:53.350Z,100123.61
2023-05-01T02:58:21.829Z,100126.20
2023-05-01T03:00:50.606Z,100127.77
2023-05-01T03:03:19.707Z,100136.14
2023-05-01T03:05:48.590Z,100138.03
2023-05-01T03:08:17.435Z,100140.24
2023-05-01T03:10:46.356Z,100139.06
2023-05-01T03:13:15.165Z,100144.20
2023-05-01T03:15:44.327Z,100143.36
2023-05-01T03:18:13.261Z,100154.47
2023-05-01T03:20:44.664Z,100157.39
2023-05-01T03:23:14.662Z,100152.45
2023-05-01T03:25:43.518Z,100163.51
2023-05-01T03:28:12.214Z,100158.38
2023-05-01T03:30:42.316Z,100172.69
2023-05-01T03:33:10.828Z,100167.74
2023-05-01T03:35:39.694Z,100163.45
2023-05-01T03:38:08.855Z,100168.92
2023-05-01T03:40:56.847Z,100170.28
2023-05-01T03:43:34.666Z,100181.07
2023-05-01T03:46:05.006Z,100183.80
2023-05-01T03:48:35.193Z,100183.99
2023-05-01T03:51:05.102Z,100186.86
2023-05-01T03:53:36.554Z,100190.58
2023-05-01T03:56:06.884Z,100194.30
2023-05-01T03:58:35.828Z,100194.95
2023-05-01T04:01:05.615Z,100195.08
2023-05-01T04:03:35.159Z,100198.47
2023-05-01T04:06:04.488Z,100201.67
2023-05-01T04:08:33.551Z,100196.86
2023-05-01T04:11:03.075Z,100200.91
2023-05-01T04:13:33.093Z,100206.50
2023-05-01T04:16:02.255Z,100212.30
2023-05-01T04:18:32.204Z,100208.34
2023-05-01T04:21:03.026Z,100210.68
2023-05-01T04:23:33.838Z,100216.94
2023-05-01T04:26:03.970Z,100214.86
2023-05-01T04:28:33.845Z,100219.61
2023-05-01T04:31:02.551Z,100221.77
2023-05-01T04:33:31.370Z,100234.38
2023-05-01T04:36:00.980Z,100225.78
2023-05-01T04:38:30.886Z,100232.37
2023-05-01T04:40:59.558Z,100231.27
2023-05-01T04:43:28.190Z,100232.19
2023-05-01T04:45:57.089Z,100237.02
2023-05-01T04:48:26.141Z,100232.45
2023-05-01T04:50:55.801Z,100233.05
2023-05-01T04:53:25.102Z,100235.20
2023-05-01T04:55:54.188Z,100238.39
2023-05-01T04:58:23.902Z,100247.37
2023-05-01T05:00:54.026Z,100253.43
2023-05-01T05:03:25.430Z,100247.53
2023-05-01T05:05:54.873Z,100250.33
2023-05-01T05:08:24.418Z,100261.53
2023-05-01T05:11:01.103Z,100254.94
2023-05-01T05:13:34.566Z,100262.88
2023-05-01T05:16:06.668Z,100266.20
2023-05-01T05:18:35.416Z,100261.82
2023-05-01T05:21:08.445Z,100265.16
2023-05-01T05:23:37.635Z,100261.23
2023-05-01T05:26:07.907Z,100273.41
2023-05-01T05:28:36.524Z,100268.73
2023-05-01T05:31:07.218Z,100268.21
2023-05-01T05:33:36.190Z,100282.02
2023-05-01T05:36:06.320Z,100279.61
2023-05-01T05:38:38.291Z,100286.26
2023-05-01T05:41:08.196Z,100286.26
2023-05-01T05:43:36.946Z,100293.75
2023-05-01T05:46:06.583Z,100290.49
2023-05-01T05:48:35.951Z,100285.02
2023-05-01T05:51:05.638Z,100295.05
2023-05-01T05:53:35.305Z,100297.06
2023-05-01T05:56:04.839Z,100305.61
2023-05-01T05:58:33.993Z,100313.75
2023-05-01T06:01:03.253Z,100311.66
2023-05-01T06:03:33.681Z,100327.70
2023-05-01T06:06:03.394Z,100320.64
2023-05-01T06:08:35.184Z,100324.23
2023-05-01T06:11:04.174Z,100323.50
2023-05-01T06:13:37.493Z,100325.52
2023-05-01T06:16:07.623Z,100332.17
2023-05-01T06:18:36.504Z,100340.11
2023-05-01T06:21:05.903Z,100338.79
2023-05-01T06:23:35.276Z,100343.78
2023-05-01T06:26:08.894Z,100340.75
2023-05-01T06:28:37.461Z,100346.92
2023-05-01T06:31:06.339Z,100364.34
2023-05-01T06:33:36.774Z,100353.05
2023-05-01T06:36:07.608Z,100358.20
2023-05-01T06:38:36.893Z,100360.89
2023-05-01T06:41:06.183Z,100361.83
2023-05-01T06:43:34.648Z,100369.50
2023-05-01T06:46:03.636Z,100370.33
2023-05-01T06:48:32.308Z,100367.76
2023-05-01T06:51:02.141Z,100366.39
2023-05-01T06:53:30.964Z,100365.97
2023-05-01T06:56:00.148Z,100372.75
2023-05-01T06:58:28.659Z,100367.16
2023-05-01T07:00:57.339Z,100369.91
2023-05-01T07:03:28.038Z,100372.56
2023-05-01T07:05:57.071Z,100380.03
2023-05-01T07:08:27.743Z,100378.21
2023-05-01T07:10:56.618Z,100379.54
2023-05-01T07:13:26.678Z,100373.02
2023-05-01T07:15:55.490Z,100383.52
2023-05-01T07:18:25.020Z,100381.00
2023-05-01T07:20:54.182Z,100383.34
2023-05-01T07:23:23.378Z,100372.30
2023-05-01T07:25:53.097Z,100385.70
2023-05-01T07:28:22.897Z,100403.76
2023-05-01T07:30:52.087Z,100391.41
2023-05-01T07:33:21.244Z,100403.26
2023-05-01T07:35:50.048Z,100413.47
2023-05-01T07:38:18.880Z,100419.06
2023-05-01T07:40:47.650Z,100403.60
2023-05-01T07:43:16.742Z,100416.68
2023-05-01T07:45:58.747Z,100413.70
2023-05-01T07:48:28.141Z,100420.52
2023-05-01T07:50:57.564Z,100405.77
2023-05-01T07:53:26.113Z,100417.66
2023-05-01T07:55:56.899Z,100418.16
2023-05-01T07:58:25.919Z,100426.24
2023-05-01T08:00:54.604Z,100423.05
2023-05-01T08:03:23.408Z,100426.23
2023-05-01T08:05:52.214Z,100423.54
2023-05-01T08:08:22.562Z,100429.73
2023-05-01T08:10:51.970Z,100427.75
2023-05-01T08:13:20.961Z,100427.91
2023-05-01T08:15:50.128Z,100424.27
2023-05-01T08:18:22.098Z,100434.91
2023-05-01T08:20:50.755Z,100422.03
2023-05-01T08:23:19.658Z,100432.05
2023-05-01T08:25:50.191Z,100457.16
2023-05-01T08:28:21.023Z,100449.03
2023-05-01T08:30:49.861Z,100442.81
2023-05-01T08:33:18.789Z,100439.88
2023-05-01T08:35:48.750Z,100438.11
2023-05-01T08:38:17.997Z,100445.34
2023-05-01T08:40:52.500Z,100456.54
2023-05-01T08:43:21.420Z,100452.50
2023-05-01T08:45:50.291Z,100454.98
2023-05-01T08:48:18.767Z,100449.88
2023-05-01T08:50:48.182Z,100455.39
2023-05-01T08:53:17.363Z,100456.34
2023-05-01T08:55:47.474Z,100447.77
2023-05-01T08:58:15.877Z,100452.41
2023-05-01T09:00:44.513Z,100465.49
2023-05-01T09:03:14.303Z,100472.25
2023-05-01T09:05:43.530Z,100462.72
2023-05-01T09:08:12.678Z,100469.61
2023-05-01T09:10:45.766Z,100470.31
2023-05-01T09:13:15.157Z,100468.31
2023-05-01T09:15:44.122Z,100466.56
2023-05-01T09:18:14.610Z,100465.26
2023-05-01T09:20:43.019Z,100482.84
2023-05-01T09:23:14.489Z,100483.56
2023-05-01T09:25:43.379Z,100487.41
2023-05-01T09:28:12.051Z,100473.25
2023-05-01T09:30:41.091Z,100487.56
2023-05-01T09:33:14.648Z,100488.88
2023-05-01T09:35:54.850Z,100497.61
2023-05-01T09:43:57.045Z,100489.61
2023-05-01T09:46:26.344Z,100486.47
2023-05-01T09:48:58.258Z,100483.27
2023-05-01T09:51:33.990Z,100486.52
2023-05-01T09:54:04.593Z,100486.36
2023-05-01T09:56:33.683Z,100492.52
2023-05-01T09:59:21.065Z,100498.20
2023-05-01T10:01:54.084Z,100489.60
2023-05-01T10:04:33.440Z,100497.89
2023-05-01T10:07:14.313Z,100506.17
2023-05-01T10:09:43.484Z,100496.89
2023-05-01T10:12:13.118Z,100497.28
2023-05-01T10:14:54.576Z,100494.13
2023-05-01T10:17:23.253Z,100494.52
2023-05-01T10:19:52.565Z,100496.05
2023-05-01T10:22:21.610Z,100498.89
2023-05-01T10:24:50.326Z,100497.58
2023-05-01T10:27:18.826Z,100500.88
2023-05-01T10:29:48.777Z,100489.52
2023-05-01T10:32:17.634Z,100498.19
2023-05-01T10:34:50.918Z,100496.04
2023-05-01T10:37:39.311Z,100502.64
2023-05-01T10:40:46.950Z,100500.72
2023-05-01T10:43:29.856Z,100500.48
2023-05-01T10:46:19.001Z,100497.11
2023-05-01T10:48:54.019Z,100501.34
2023-05-01T10:51:27.179Z,100508.16
2023-05-01T10:54:21.352Z,100507.55
2023-05-01T10:56:50.422Z,100498.41
2023-05-01T10:59:19.131Z,100504.05
2023-05-01T11:01:52.238Z,100508.84
2023-05-01T11:04:29.709Z,100510.62
2023-05-01T11:07:17.660Z,100506.47
2023-05-01T11:09:55.054Z,100520.67
2023-05-01T11:12:47.812Z,100513.84
2023-05-01T11:15:33.334Z,100524.21
2023-05-01T11:18:02.675Z,100512.30
2023-05-01T11:20:48.256Z,100512.30
2023-05-01T11:23:18.267Z,100513.53
2023-05-01T11:25:46.973Z,100507.55
2023-05-01T11:28:20.036Z,100513.00
2023-05-01T11:30:50.589Z,100513.99
2023-05-01T11:33:26.252Z,100509.58
2023-05-01T11:35:59.888Z,100509.84
2023-05-01T11:38:28.514Z,100507.45
2023-05-01T11:40:59.082Z,100517.57
2023-05-01T11:43:27.947Z,100506.91
2023-05-01T11:45:58.256Z,100506.23
2023-05-01T11:48:26.885Z,100511.61
2023-05-01T11:50:55.614Z,100510.84
2023-05-01T11:53:24.113Z,100495.66
2023-05-01T11:55:52.658Z,100520.28
2023-05-01T11:58:33.195Z,100524.03
2023-05-01T12:01:03.041Z,100518.83
2023-05-01T12:03:42.490Z,100520.12
2023-05-01T12:06:13.074Z,100508.09
2023-05-01T12:08:47.542Z,100525.19
2023-05-01T12:11:16.028Z,100514.14
2023-05-01T12:13:47.419Z,100516.67
2023-05-01T12:16:17.155Z,100527.04
2023-05-01T12:18:45.797Z,100522.67
2023-05-01T12:21:17.810Z,100520.83
2023-05-01T12:23:46.226Z,100525.13
2023-05-01T12:26:27.424Z,100524.83
2023-05-01T12:29:01.854Z,100525.36
2023-05-01T12:31:31.219Z,100529.97
2023-05-01T12:34:03.314Z,100531.66
2023-05-01T12:36:36.094Z,100526.44
2023-05-01T12:39:09.948Z,100514.31
2023-05-01T12:41:52.374Z,100521.22
2023-05-01T12:44:27.004Z,100525.22
2023-05-01T12:47:07.973Z,100524.91
2023-05-01T12:49:37.308Z,100523.53
2023-05-01T12:52:07.459Z,100535.66
2023-05-01T12:54:39.297Z,100520.61
2023-05-01T12:57:17.670Z,100517.84
2023-05-01T12:59:49.410Z,100526.27
2023-05-01T13:02:18.262Z,100529.34
2023-05-01T13:04:49.374Z,100526.97
2023-05-01T13:07:19.109Z,100530.43
2023-05-01T13:09:55.817Z,100528.05
2023-05-01T13:12:25.899Z,100532.89
2023-05-01T13:14:56.252Z,100538.34
2023-05-01T13:17:31.138Z,100534.43
2023-05-01T13:20:03.326Z,100537.34
2023-05-01T13:22:37.103Z,100533.13
2023-05-01T13:25:17.694Z,100540.56
2023-05-01T13:27:52.858Z,100544.86
2023-05-01T13:30:32.735Z,100547.01
2023-05-01T13:33:01.546Z,100535.95
2023-05-01T13:35:30.317Z,100535.65
2023-05-01T13:38:03.815Z,100540.86
2023-05-01T13:40:32.499Z,100544.55
2023-05-01T13:43:02.810Z,100549.63
2023-05-01T13:45:31.744Z,100544.41
2023-05-01T13:48:00.283Z,100558.37
2023-05-01T13:50:29.185Z,100548.23
2023-05-01T13:52:58.560Z,100556.68
2023-05-01T13:55:27.536Z,100559.13
2023-05-01T13:57:56.380Z,100547.16
2023-05-01T14:00:25.526Z,100553.31
2023-05-01T14:02:56.093Z,100556.92
2023-05-01T14:05:28.687Z,100551.39
2023-05-01T14:08:01.987Z,100551.70
2023-05-01T14:10:30.721Z,100557.76
2023-05-01T14:12:59.389Z,100556.07
2023-05-01T14:15:29.658Z,100559.91
2023-05-01T14:18:01.184Z,100556.38
2023-05-01T14:20:30.949Z,100559.98
2023-05-01T14:23:01.046Z,100565.91
2023-05-01T14:25:33.880Z,100567.98
2023-05-01T14:28:07.666Z,100571.12
2023-05-01T14:30:38.099Z,100576.66
2023-05-01T14:33:10.827Z,100579.11
2023-05-01T14:35:52.828Z,100576.66
2023-05-01T14:38:22.262Z,100571.66
2023-05-01T14:40:50.783Z,100581.11
2023-05-01T14:43:22.089Z,100578.04
2023-05-01T14:45:51.025Z,100580.88
2023-05-01T14:48:24.068Z,100587.33
2023-05-01T14:50:54.258Z,100586.18
2023-05-01T14:53:23.174Z,100584.27
2023-05-01T14:55:54.094Z,100582.95
2023-05-01T14:58:22.867Z,100584.80
2023-05-01T15:00:52.575Z,100592.14
2023-05-01T15:03:22.312Z,100592.13
2023-05-01T15:05:50.930Z,100589.75
2023-05-01T15:08:19.391Z,100595.74
2023-05-01T15:10:48.223Z,100592.83
2023-05-01T15:13:16.785Z,100595.74
2023-05-01T15:15:45.778Z,100596.94
2023-05-01T15:18:16.330Z,100596.02
2023-05-01T15:20:45.961Z,100600.85
2023-05-01T15:23:15.991Z,100605.46
2023-05-01T15:25:44.484Z,100603.16
2023-05-01T15:28:13.926Z,100603.92
2023-05-01T15:30:45.562Z,100614.89
2023-05-01T15:33:16.243Z,100618.11
2023-05-01T15:35:45.933Z,100614.66
2023-05-01T15:38:14.411Z,100613.42
2023-05-01T15:40:45.813Z,100616.86
2023-05-01T15:43:14.651Z,100612.78
2023-05-01T15:45:44.539Z,100616.53
2023-05-01T15:48:13.373Z,100626.74
2023-05-01T15:50:42.104Z,100627.81
2023-05-01T15:53:10.564Z,100633.87
2023-05-01T15:55:39.058Z,100633.34
2023-05-01T15:58:07.849Z,100626.13
2023-05-01T16:00:38.591Z,100630.19
2023-05-01T16:03:08.503Z,100632.33
2023-05-01T16:05:37.329Z,100640.61
2023-05-01T16:08:06.261Z,100642.53
2023-05-01T16:10:38.232Z,100644.36
2023-05-01T16:13:06.805Z,100648.11
2023-05-01T16:15:36.551Z,100655.44
2023-05-01T16:18:05.770Z,100659.14
2023-05-01T16:20:42.400Z,100662.36
2023-05-01T16:23:11.841Z,100664.80
2023-05-01T16:25:43.424Z,100673.31
2023-05-01T16:28:12.798Z,100666.10
2023-05-01T16:30:45.009Z,100676.75
2023-05-01T16:33:19.858Z,100675.81
2023-05-01T16:35:49.106Z,100677.11
2023-05-01T16:38:18.219Z,100685.30
2023-05-01T16:40:47.841Z,100689.97
2023-05-01T16:43:16.371Z,100688.81
2023-05-01T16:45:46.845Z,100693.09
2023-05-01T16:48:21.094Z,100696.83
2023-05-01T16:50:51.529Z,100698.88
2023-05-01T16:53:22.697Z,100703.98
2023-05-01T16:55:52.626Z,100708.57
2023-05-01T16:58:21.631Z,100718.27
2023-05-01T17:00:50.532Z,100713.09
2023-05-01T17:03:19.273Z,100720.11
2023-05-01T17:05:48.076Z,100722.87
2023-05-01T17:08:16.957Z,100721.83
2023-05-01T17:10:45.967Z,100725.24
2023-05-01T17:13:15.593Z,100728.66
2023-05-01T17:15:44.718Z,100728.24
2023-05-01T17:18:13.886Z,100740.02
2023-05-01T17:20:43.009Z,100735.47
2023-05-01T17:23:12.106Z,100736.22
2023-05-01T17:25:40.589Z,100747.38
2023-05-01T17:28:09.142Z,100748.55
2023-05-01T17:30:37.874Z,100751.73
2023-05-01T17:33:06.699Z,100752.38
2023-05-01T17:35:35.396Z,100752.93
2023-05-01T17:38:04.642Z,100750.99
2023-05-01T17:40:33.433Z,100762.45
2023-05-01T17:43:04.486Z,100761.18
2023-05-01T17:45:33.375Z,100765.08
2023-05-01T17:48:03.505Z,100769.32
2023-05-01T17:50:32.344Z,100774.94
2023-05-01T17:53:00.977Z,100783.52
2023-05-01T17:55:29.975Z,100778.12
2023-05-01T17:57:58.788Z,100784.80
2023-05-01T18:00:28.665Z,100785.95
2023-05-01T18:02:57.679Z,100789.55
2023-05-01T18:05:26.571Z,100790.71
2023-05-01T18:07:55.956Z,100791.23
2023-05-01T18:10:28.188Z,100796.94
2023-05-01T18:12:57.866Z,100800.91
2023-05-01T18:15:26.354Z,100807.55
2023-05-01T18:17:54.913Z,100812.50
2023-05-01T18:20:25.188Z,100817.02
2023-05-01T18:22:54.123Z,100813.80
2023-05-01T18:25:22.755Z,100815.20
2023-05-01T18:27:51.467Z,100826.91
2023-05-01T18:30:21.483Z,100828.09
2023-05-01T18:32:51.521Z,100827.94
2023-05-01T18:35:21.449Z,100825.88
2023-05-01T18:37:51.400Z,100829.19
2023-05-01T18:40:20.366Z,100839.08
2023-05-01T18:42:51.569Z,100843.48
2023-05-01T18:45:21.219Z,100843.76
2023-05-01T18:47:49.809Z,100846.58
2023-05-01T18:50:20.765Z,100841.36
2023-05-01T18:52:49.467Z,100860.14
2023-05-01T18:55:18.751Z,100853.31
2023-05-01T18:57:48.428Z,100863.52
2023-05-01T19:00:17.330Z,100864.77
2023-05-01T19:02:49.456Z,100863.13
2023-05-01T19:05:18.090Z,100865.23
2023-05-01T19:07:46.740Z,100860.13
2023-05-01T19:10:15.672Z,100863.98
2023-05-01T19:12:45.416Z,100861.30
2023-05-01T19:15:15.895Z,100867.72
2023-05-01T19:17:45.832Z,100871.57
2023-05-01T19:20:14.557Z,100873.53
2023-05-01T19:22:43.445Z,100877.38
2023-05-01T19:25:12.123Z,100873.84
2023-05-01T19:27:41.920Z,100875.64
2023-05-01T19:30:11.682Z,100878.86
2023-05-01T19:32:41.554Z,100875.52
2023-05-01T19:35:11.419Z,100884.00
2023-05-01T19:37:40.396Z,100881.63
2023-05-01T19:40:09.977Z,100888.55
2023-05-01T19:42:38.872Z,100892.72
2023-05-01T19:45:08.980Z,100892.77
2023-05-01T19:47:38.469Z,100893.16
2023-05-01T19:50:08.917Z,100896.61
2023-05-01T19:52:37.912Z,100896.14
2023-05-01T19:55:08.071Z,100895.34
2023-05-01T19:57:36.862Z,100901.39
2023-05-01T20:00:07.432Z,100900.92
2023-05-01T20:02:38.660Z,100903.19
2023-05-01T20:05:08.598Z,100900.50
2023-05-01T20:07:37.553Z,100908.91
2023-05-01T20:10:06.814Z,100908.08
2023-05-01T20:12:35.964Z,100910.86
2023-05-01T20:15:05.796Z,100914.50
2023-05-01T20:17:36.527Z,100913.55
2023-05-01T20:20:06.713Z,100913.92
2023-05-01T20:22:35.748Z,100910.84
2023-05-01T20:25:08.129Z,100916.85
2023-05-01T20:27:38.412Z,100915.34
2023-05-01T20:30:11.074Z,100921.86
2023-05-01T20:32:41.753Z,100921.37
2023-05-01T20:35:11.524Z,100918.82
2023-05-01T20:37:40.066Z,100924.16
2023-05-01T20:40:11.484Z,100921.79
2023-05-01T20:42:40.052Z,100930.72
2023-05-01T20:45:09.977Z,100930.57
2023-05-01T20:47:39.325Z,100928.23
2023-05-01T20:50:09.624Z,100934.78
2023-05-01T20:52:38.307Z,100929.71
2023-05-01T20:55:09.191Z,100932.82
2023-05-01T20:57:38.574Z,100929.94
2023-05-01T21:00:08.110Z,100926.38
2023-05-01T21:02:39.675Z,100936.69
2023-05-01T21:05:09.804Z,100942.90
2023-05-01T21:07:39.623Z,100941.89
2023-05-01T21:10:11.003Z,100946.88
2023-05-01T21:12:39.732Z,100949.67
2023-05-01T21:15:10.552Z,100946.80
2023-05-01T21:17:40.443Z,100952.63
2023-05-01T21:20:16.568Z,100959.66
2023-05-01T21:22:47.000Z,100962.23
2023-05-01T21:25:16.025Z,100961.05
2023-05-01T21:27:44.495Z,100967.39
2023-05-01T21:30:16.312Z,100974.42
2023-05-01T21:32:45.116Z,100968.49
2023-05-01T21:35:17.326Z,100976.40
2023-05-01T21:37:44.873Z,100977.78
2023-05-01T21:40:14.196Z,100986.52
2023-05-01T21:42:43.052Z,100984.31
2023-05-01T21:45:13.318Z,100987.06
2023-05-01T21:47:45.530Z,100987.23
2023-05-01T21:50:16.816Z,100990.14
2023-05-01T21:52:47.586Z,100985.54
2023-05-01T21:55:21.100Z,100984.00
2023-05-01T21:57:49.954Z,100994.97
2023-05-01T22:00:18.793Z,100998.05
2023-05-01T22:02:50.740Z,101004.38
2023-05-01T22:05:22.033Z,101010.67
2023-05-01T22:07:53.912Z,101013.41
2023-05-01T22:10:23.169Z,101014.44
2023-05-01T22:12:51.951Z,101022.30
2023-05-01T22:15:24.227Z,101013.59
2023-05-01T22:17:56.519Z,101011.38
2023-05-01T22:20:25.897Z,101006.59
2023-05-01T22:22:54.462Z,101018.55
2023-05-01T22:25:23.307Z,101018.55
2023-05-01T22:27:52.045Z,101028.97
2023-05-01T22:30:20.867Z,101025.20
2023-05-01T22:32:49.722Z,101032.55
2023-05-01T22:35:18.275Z,101029.64
2023-05-01T22:37:46.940Z,101034.08
2023-05-01T22:40:15.856Z,101029.64
2023-05-01T22:42:44.911Z,101039.70
2023-05-01T22:45:13.548Z,101037.79
2023-05-01T22:47:42.622Z,101040.34
2023-05-01T22:50:11.651Z,101034.49
2023-05-01T22:52:41.294Z,101039.59
2023-05-01T22:55:10.056Z,101034.98
2023-05-01T22:57:38.858Z,101031.73
2023-05-01T23:00:09.419Z,101030.01
2023-05-01T23:02:38.270Z,101040.41
2023-05-01T23:05:08.723Z,101038.84
2023-05-01T23:07:37.759Z,101042.58
2023-05-01T23:10:07.661Z,101045.47
2023-05-01T23:12:42.644Z,101042.90
2023-05-01T23:15:16.686Z,101051.92
2023-05-01T23:17:45.356Z,101051.06
2023-05-01T23:20:15.969Z,101047.99
2023-05-01T23:22:45.215Z,101052.89
2023-05-01T23:25:15.913Z,101046.39
2023-05-01T23:27:44.786Z,101051.16
2023-05-01T23:30:13.668Z,101053.38
2023-05-01T23:32:43.073Z,101049.96
2023-05-01T23:35:15.785Z,101043.30
2023-05-01T23:37:44.910Z,101041.77
2023-05-01T23:40:13.634Z,101047.37
2023-05-01T23:42:42.288Z,101050.27
2023-05-01T23:45:11.240Z,101043.78
2023-05-01T23:47:39.827Z,101053.32
2023-05-01T23:50:10.100Z,101054.52
2023-05-01T23:52:38.790Z,101056.72
2023-05-01T23:55:08.457Z,101059.23
2023-05-01T23:57:37.623Z,101059.38
